createdAt,value
2022-09-06T00:02:33.251Z,4.00
2022-09-06T00:05:20.281Z,3.90
2022-09-06T00:08:07.302Z,3.73
2022-09-06T00:11:01.124Z,3.57
2022-09-06T00:13:48.613Z,3.77
2022-09-06T00:16:35.580Z,4.80
2022-09-06T00:19:22.518Z,4.47
2022-09-06T00:22:09.516Z,3.80
2022-09-06T00:24:57.095Z,4.07
2022-09-06T00:27:44.068Z,4.00
2022-09-06T00:30:32.722Z,3.77
2022-09-06T00:33:19.790Z,4.00
2022-09-06T00:36:07.547Z,4.47
2022-09-06T00:38:54.506Z,4.90
2022-09-06T00:41:41.471Z,4.13
2022-09-06T00:44:28.430Z,4.47
2022-09-06T00:47:15.570Z,4.77
2022-09-06T00:50:04.422Z,4.70
2022-09-06T00:52:52.845Z,5.57
2022-09-06T00:55:41.598Z,4.50
2022-09-06T00:58:29.091Z,5.60
2022-09-06T01:01:16.201Z,5.37
2022-09-06T01:04:03.964Z,5.17
2022-09-06T01:07:09.712Z,5.20
2022-09-06T01:10:27.356Z,5.17
2022-09-06T01:13:28.724Z,5.67
2022-09-06T01:16:43.402Z,5.43
2022-09-06T01:19:52.447Z,5.57
2022-09-06T01:22:59.770Z,5.63
2022-09-06T01:26:32.497Z,5.67
2022-09-06T01:29:34.091Z,5.80
2022-09-06T01:32:51.595Z,5.80
2022-09-06T01:35:43.844Z,5.50
2022-09-06T01:38:30.946Z,5.90
2022-09-06T01:41:17.929Z,5.40
2022-09-06T01:44:04.912Z,5.40
2022-09-06T01:47:15.926Z,5.57
2022-09-06T01:50:27.285Z,5.77
2022-09-06T01:53:33.745Z,5.67
2022-09-06T01:56:42.872Z,6.07
2022-09-06T01:59:32.435Z,5.67
2022-09-06T02:02:27.530Z,6.23
2022-09-06T02:05:39.351Z,5.27
2022-09-06T02:08:33.457Z,5.70
2022-09-06T02:11:22.107Z,5.73
2022-09-06T02:14:15.895Z,5.83
2022-09-06T02:17:04.506Z,5.63
2022-09-06T02:20:07.959Z,5.80
2022-09-06T02:22:59.710Z,5.23
2022-09-06T02:26:27.645Z,5.33
2022-09-06T02:29:16.092Z,5.67
2022-09-06T02:32:23.900Z,5.83
2022-09-06T02:35:15.744Z,5.60
2022-09-06T02:38:02.703Z,5.83
2022-09-06T02:40:52.454Z,6.10
2022-09-06T02:43:40.554Z,5.67
2022-09-06T02:46:27.547Z,6.03
2022-09-06T02:49:14.556Z,5.33
2022-09-06T02:52:01.627Z,4.70
2022-09-06T02:54:48.574Z,5.80
2022-09-06T02:57:35.563Z,6.00
2022-09-06T03:00:22.645Z,5.50
2022-09-06T03:03:09.671Z,6.00
2022-09-06T03:05:56.653Z,6.57
2022-09-06T03:08:43.599Z,5.80
2022-09-06T03:11:30.574Z,5.93
2022-09-06T03:14:19.446Z,6.03
2022-09-06T03:17:06.470Z,6.43
2022-09-06T03:19:53.497Z,6.40
2022-09-06T03:22:41.390Z,7.50
2022-09-06T03:25:28.337Z,7.93
2022-09-06T03:28:15.818Z,7.03
2022-09-06T03:31:03.488Z,7.80
2022-09-06T03:33:50.463Z,6.97
2022-09-06T03:36:37.439Z,7.37
2022-09-06T03:39:24.473Z,7.47
2022-09-06T03:42:11.464Z,7.07
2022-09-06T03:44:58.433Z,7.63
2022-09-06T03:47:45.396Z,6.93
2022-09-06T03:50:32.342Z,7.67
2022-09-06T03:53:20.313Z,7.80
2022-09-06T03:56:07.245Z,7.20
2022-09-06T03:58:54.412Z,7.30
2022-09-06T04:01:41.439Z,7.50
2022-09-06T04:04:28.489Z,7.40
2022-09-06T04:07:15.473Z,7.10
2022-09-06T04:10:02.478Z,6.77
2022-09-06T04:12:49.453Z,6.73
2022-09-06T04:15:37.162Z,6.33
2022-09-06T04:18:24.661Z,6.50
2022-09-06T04:21:11.689Z,6.43
2022-09-06T04:23:58.636Z,6.37
2022-09-06T04:26:45.577Z,6.40
2022-09-06T04:29:32.618Z,5.13
2022-09-06T04:32:19.633Z,5.83
2022-09-06T04:35:07.047Z,6.97
2022-09-06T04:37:53.995Z,6.63
2022-09-06T04:40:40.985Z,6.30
2022-09-06T04:43:28.028Z,6.47
2022-09-06T04:46:24.927Z,5.90
2022-09-06T04:49:11.902Z,5.80
2022-09-06T04:51:58.847Z,4.37
2022-09-06T04:54:45.784Z,3.80
2022-09-06T04:57:32.764Z,4.10
2022-09-06T05:00:19.870Z,4.70
2022-09-06T05:03:06.802Z,5.07
2022-09-06T05:06:04.298Z,5.70
2022-09-06T05:08:51.631Z,5.73
2022-09-06T05:11:38.569Z,6.43
2022-09-06T05:14:26.833Z,6.20
2022-09-06T05:17:14.736Z,6.13
2022-09-06T05:20:01.890Z,5.93
2022-09-06T05:22:54.263Z,5.60
2022-09-06T05:25:41.212Z,5.83
2022-09-06T05:28:28.270Z,5.53
2022-09-06T05:31:28.784Z,5.10
2022-09-06T05:34:15.931Z,5.47
2022-09-06T05:37:02.887Z,5.90
2022-09-06T05:39:49.939Z,5.63
2022-09-06T05:42:37.052Z,5.43
2022-09-06T05:45:24.043Z,6.57
2022-09-06T05:48:11.080Z,6.87
2022-09-06T05:51:02.713Z,6.50
2022-09-06T05:53:50.061Z,6.20
2022-09-06T05:56:37.102Z,6.40
2022-09-06T05:59:24.104Z,6.47
2022-09-06T06:02:11.107Z,6.87
2022-09-06T06:04:58.523Z,6.70
2022-09-06T06:07:45.485Z,6.77
2022-09-06T06:10:35.481Z,6.87
2022-09-06T06:13:25.394Z,7.33
2022-09-06T06:16:17.579Z,7.20
2022-09-06T06:19:05.086Z,7.30
2022-09-06T06:21:52.624Z,6.43
2022-09-06T06:24:39.700Z,8.03
2022-09-06T06:27:26.675Z,7.33
2022-09-06T06:30:18.220Z,7.70
2022-09-06T06:33:05.443Z,7.13
2022-09-06T06:36:14.972Z,7.90
2022-09-06T06:39:04.759Z,7.13
2022-09-06T06:41:53.021Z,7.43
2022-09-06T06:44:57.529Z,7.63
2022-09-06T06:47:48.793Z,7.63
2022-09-06T06:50:35.758Z,7.70
2022-09-06T06:53:22.725Z,8.37
2022-09-06T06:56:16.619Z,8.63
2022-09-06T06:59:05.440Z,8.37
2022-09-06T07:01:52.881Z,8.30
2022-09-06T07:04:39.897Z,8.47
2022-09-06T07:13:19.435Z,8.20
2022-09-06T07:16:20.016Z,8.03
2022-09-06T07:19:07.113Z,8.03
2022-09-06T07:21:54.123Z,7.30
2022-09-06T07:24:41.202Z,7.50
2022-09-06T07:30:37.305Z,6.50
2022-09-06T07:33:25.373Z,6.20
2022-09-06T07:36:12.392Z,6.50
2022-09-06T07:38:59.419Z,6.47
2022-09-06T07:41:46.657Z,5.80
2022-09-06T07:44:33.695Z,5.80
2022-09-06T07:50:46.469Z,6.80
2022-09-06T07:53:36.155Z,5.67
2022-09-06T07:56:24.493Z,6.10
2022-09-06T07:59:11.465Z,5.47
2022-09-06T08:01:58.495Z,5.83
2022-09-06T08:04:49.756Z,6.00
2022-09-06T08:10:30.335Z,6.50
2022-09-06T08:13:17.273Z,6.63
2022-09-06T08:16:09.237Z,5.90
2022-09-06T08:19:01.830Z,6.90
2022-09-06T08:21:49.631Z,7.77
2022-09-06T08:24:36.679Z,7.47
2022-09-06T08:27:23.651Z,7.90
2022-09-06T08:30:11.091Z,7.07
2022-09-06T08:32:58.025Z,6.37
2022-09-06T08:35:54.718Z,6.00
2022-09-06T08:38:41.857Z,6.47
2022-09-06T08:41:42.108Z,6.10
2022-09-06T08:47:39.019Z,6.10
2022-09-06T08:50:28.669Z,6.07
2022-09-06T08:53:19.202Z,5.37
2022-09-06T08:56:17.368Z,5.77
2022-09-06T08:59:06.785Z,5.20
2022-09-06T09:02:05.726Z,5.40
2022-09-06T09:04:58.588Z,5.53
2022-09-06T09:08:00.205Z,5.13
2022-09-06T09:10:50.497Z,5.07
2022-09-06T09:13:59.347Z,5.33
2022-09-06T09:16:51.420Z,5.90
2022-09-06T09:19:41.319Z,5.47
2022-09-06T09:22:28.390Z,4.97
2022-09-06T09:25:22.348Z,4.30
2022-09-06T09:28:19.178Z,4.53
2022-09-06T09:31:07.361Z,4.17
2022-09-06T09:33:56.191Z,4.43
2022-09-06T09:39:54.115Z,4.67
2022-09-06T09:42:41.245Z,4.80
2022-09-06T09:45:30.723Z,4.53
2022-09-06T09:48:29.617Z,4.70
2022-09-06T09:51:27.312Z,4.50
2022-09-06T09:54:31.030Z,4.00
2022-09-06T09:57:18.990Z,3.73
2022-09-06T10:00:12.975Z,4.07
2022-09-06T10:03:00.139Z,4.20
2022-09-06T10:06:03.770Z,3.70
2022-09-06T10:08:51.479Z,3.80
2022-09-06T10:11:58.834Z,4.23
2022-09-06T10:14:49.128Z,4.03
2022-09-06T10:17:38.659Z,3.77
2022-09-06T10:20:35.030Z,3.43
2022-09-06T10:26:56.224Z,3.37
2022-09-06T10:30:08.394Z,3.30
2022-09-06T10:33:04.084Z,3.33
2022-09-06T10:35:52.570Z,2.90
2022-09-06T10:38:54.377Z,2.93
2022-09-06T10:42:07.211Z,2.97
2022-09-06T10:45:12.536Z,3.43
2022-09-06T10:48:02.063Z,3.20
2022-09-06T10:50:57.574Z,2.87
2022-09-06T10:54:01.922Z,2.77
2022-09-06T11:00:24.031Z,2.47
2022-09-06T11:06:45.852Z,2.50
2022-09-06T11:09:39.481Z,2.37
2022-09-06T11:12:39.780Z,2.30
2022-09-06T11:15:30.160Z,2.90
2022-09-06T11:18:26.485Z,2.70
2022-09-06T11:21:35.008Z,2.20
2022-09-06T11:24:36.913Z,2.43
2022-09-06T11:27:29.854Z,2.43
2022-09-06T11:30:17.995Z,2.47
2022-09-06T11:33:23.715Z,2.47
2022-09-06T11:36:35.130Z,2.23
2022-09-06T11:42:47.717Z,2.67
2022-09-06T11:45:53.056Z,2.53
2022-09-06T11:49:01.458Z,2.00
2022-09-06T11:51:49.192Z,2.70
2022-09-06T11:54:47.087Z,2.30
2022-09-06T11:57:34.166Z,2.27
2022-09-06T12:00:24.343Z,2.50
2022-09-06T12:07:11.564Z,2.30
2022-09-06T12:10:01.983Z,2.57
2022-09-06T12:12:52.440Z,2.23
2022-09-06T12:15:54.414Z,1.90
2022-09-06T12:18:47.299Z,2.20
2022-09-06T12:21:47.660Z,2.60
2022-09-06T12:24:34.530Z,2.40
2022-09-06T12:27:29.662Z,2.40
2022-09-06T12:30:30.825Z,2.33
2022-09-06T12:33:25.272Z,2.10
2022-09-06T12:36:15.706Z,2.23
2022-09-06T12:39:12.119Z,2.17
2022-09-06T12:42:10.807Z,2.10
2022-09-06T12:44:58.082Z,2.80
2022-09-06T12:47:45.294Z,2.20
2022-09-06T12:50:32.237Z,2.43
2022-09-06T12:53:25.660Z,2.43
2022-09-06T12:56:12.929Z,1.93
2022-09-06T12:59:20.275Z,2.00
2022-09-06T13:02:16.263Z,2.20
2022-09-06T13:05:07.167Z,2.23
2022-09-06T13:07:58.028Z,2.27
2022-09-06T13:10:47.842Z,2.00
2022-09-06T13:13:34.901Z,2.23
2022-09-06T13:16:25.183Z,2.70
2022-09-06T13:19:18.909Z,2.50
2022-09-06T13:22:08.737Z,2.30
2022-09-06T13:24:56.468Z,2.13
2022-09-06T13:27:46.012Z,2.00
2022-09-06T13:30:34.849Z,1.90
2022-09-06T13:33:26.168Z,1.80
2022-09-06T13:36:23.972Z,2.00
2022-09-06T13:39:12.351Z,2.00
2022-09-06T13:42:25.131Z,1.80
2022-09-06T13:45:29.800Z,2.20
2022-09-06T13:48:28.873Z,1.80
2022-09-06T13:51:18.100Z,2.17
2022-09-06T13:54:13.202Z,2.27
2022-09-06T13:57:01.715Z,2.00
2022-09-06T13:59:48.728Z,2.20
2022-09-06T14:02:36.026Z,2.83
2022-09-06T14:05:23.035Z,2.20
2022-09-06T14:08:09.990Z,2.57
2022-09-06T14:10:56.933Z,2.23
2022-09-06T14:13:44.177Z,2.00
2022-09-06T14:16:31.794Z,2.07
2022-09-06T14:19:18.727Z,2.07
2022-09-06T14:22:06.910Z,2.60
2022-09-06T14:24:55.173Z,2.20
2022-09-06T14:27:42.134Z,2.10
2022-09-06T14:30:29.411Z,2.20
2022-09-06T14:33:16.589Z,2.17
2022-09-06T14:36:15.572Z,2.10
2022-09-06T14:39:02.872Z,2.20
2022-09-06T14:41:50.484Z,1.93
2022-09-06T14:44:37.442Z,2.20
2022-09-06T14:47:24.416Z,2.20
2022-09-06T14:50:11.508Z,2.17
2022-09-06T14:52:58.691Z,2.97
2022-09-06T14:55:45.624Z,2.57
2022-09-06T14:58:33.322Z,2.30
2022-09-06T15:01:24.771Z,2.30
2022-09-06T15:04:11.865Z,2.37
2022-09-06T15:06:59.900Z,2.10
2022-09-06T15:09:47.236Z,2.40
2022-09-06T15:12:34.182Z,2.13
2022-09-06T15:15:21.240Z,2.03
2022-09-06T15:18:08.232Z,2.53
2022-09-06T15:20:55.182Z,1.63
2022-09-06T15:23:45.596Z,1.77
2022-09-06T15:26:33.458Z,2.10
2022-09-06T15:29:20.778Z,2.40
2022-09-06T15:32:07.810Z,1.90
2022-09-06T15:34:54.846Z,1.90
2022-09-06T15:37:41.888Z,1.97
2022-09-06T15:40:28.845Z,1.90
2022-09-06T15:43:15.805Z,1.93
2022-09-06T15:46:02.865Z,2.40
2022-09-06T15:48:53.468Z,2.07
2022-09-06T15:51:40.477Z,1.90
2022-09-06T15:54:47.235Z,1.97
2022-09-06T15:57:34.152Z,1.80
2022-09-06T16:00:23.562Z,1.87
2022-09-06T16:03:11.118Z,1.83
2022-09-06T16:09:14.311Z,1.70
2022-09-06T16:12:01.434Z,2.00
2022-09-06T16:14:48.466Z,2.00
2022-09-06T16:17:35.447Z,2.00
2022-09-06T16:20:23.154Z,1.67
2022-09-06T16:23:10.108Z,1.63
2022-09-06T16:25:57.170Z,2.10
2022-09-06T16:28:44.128Z,1.60
2022-09-06T16:31:39.179Z,2.00
2022-09-06T16:34:27.391Z,1.80
2022-09-06T16:37:14.332Z,1.80
2022-09-06T16:40:01.583Z,2.00
2022-09-06T16:42:48.985Z,2.00
2022-09-06T16:45:35.986Z,1.83
2022-09-06T16:48:23.064Z,1.80
2022-09-06T16:51:15.548Z,1.80
2022-09-06T16:54:02.756Z,1.60
2022-09-06T16:56:49.713Z,1.80
2022-09-06T16:59:37.281Z,1.93
2022-09-06T17:02:24.414Z,1.90
2022-09-06T17:05:11.689Z,1.90
2022-09-06T17:07:58.608Z,2.00
2022-09-06T17:10:46.546Z,1.70
2022-09-06T17:13:33.653Z,1.80
2022-09-06T17:16:39.460Z,1.97
2022-09-06T17:19:27.518Z,1.90
2022-09-06T17:22:14.907Z,1.80
2022-09-06T17:25:03.089Z,1.60
2022-09-06T17:27:50.601Z,1.67
2022-09-06T17:30:40.860Z,2.10
2022-09-06T17:33:28.372Z,2.00
2022-09-06T17:36:22.034Z,2.17
2022-09-06T17:39:13.732Z,1.90
2022-09-06T17:42:02.084Z,2.30
2022-09-06T17:44:49.021Z,2.10
2022-09-06T17:47:36.068Z,2.00
2022-09-06T17:50:23.047Z,1.80
2022-09-06T17:53:10.664Z,1.90
2022-09-06T17:55:57.781Z,2.00
2022-09-06T17:58:59.273Z,2.10
2022-09-06T18:01:46.486Z,2.43
2022-09-06T18:04:33.937Z,2.27
2022-09-06T18:07:20.918Z,2.00
2022-09-06T18:10:08.615Z,2.33
2022-09-06T18:12:55.557Z,1.93
2022-09-06T18:15:42.530Z,2.20
2022-09-06T18:18:31.202Z,2.00
2022-09-06T18:21:19.029Z,2.00
2022-09-06T18:24:06.584Z,2.00
2022-09-06T18:26:53.590Z,2.20
2022-09-06T18:29:40.577Z,2.00
2022-09-06T18:32:27.516Z,2.07
2022-09-06T18:35:14.531Z,2.10
2022-09-06T18:38:01.498Z,2.50
2022-09-06T18:41:00.018Z,2.00
2022-09-06T18:43:47.079Z,2.20
2022-09-06T18:46:36.276Z,2.33
2022-09-06T18:49:24.177Z,2.20
2022-09-06T18:52:11.180Z,2.20
2022-09-06T18:54:58.146Z,2.20
2022-09-06T18:57:45.089Z,2.10
2022-09-06T19:00:32.491Z,2.30
2022-09-06T19:03:19.572Z,1.87
2022-09-06T19:06:10.394Z,2.30
2022-09-06T19:08:59.251Z,2.50
2022-09-06T19:11:49.180Z,2.27
2022-09-06T19:14:36.293Z,2.33
2022-09-06T19:17:23.294Z,2.43
2022-09-06T19:20:10.545Z,2.30
2022-09-06T19:22:57.491Z,2.23
2022-09-06T19:25:44.606Z,2.00
2022-09-06T19:28:32.843Z,2.17
2022-09-06T19:31:20.104Z,2.67
2022-09-06T19:34:07.608Z,2.33
2022-09-06T19:36:57.121Z,2.30
2022-09-06T19:39:44.313Z,2.33
2022-09-06T19:42:31.447Z,2.70
2022-09-06T19:45:18.396Z,2.43
2022-09-06T19:48:06.734Z,2.10
2022-09-06T19:50:53.880Z,3.03
2022-09-06T19:53:41.868Z,2.40
2022-09-06T19:56:32.584Z,4.63
2022-09-06T19:59:19.564Z,8.77
2022-09-06T20:02:06.535Z,7.90
2022-09-06T20:04:53.592Z,5.70
2022-09-06T20:07:40.526Z,3.90
2022-09-06T20:10:27.529Z,3.80
2022-09-06T20:13:14.464Z,3.93
2022-09-06T20:16:07.120Z,3.97
2022-09-06T20:18:55.431Z,4.00
2022-09-06T20:21:43.015Z,3.10
2022-09-06T20:24:29.977Z,3.70
2022-09-06T20:27:16.993Z,4.00
2022-09-06T20:30:04.353Z,4.50
2022-09-06T20:32:51.318Z,4.27
2022-09-06T20:35:38.242Z,4.00
2022-09-06T20:38:26.464Z,4.07
2022-09-06T20:41:22.726Z,4.60
2022-09-06T20:44:09.679Z,4.07
2022-09-06T20:46:56.737Z,3.63
2022-09-06T20:49:44.344Z,3.60
2022-09-06T20:52:31.302Z,3.43
2022-09-06T20:55:18.370Z,3.03
2022-09-06T20:58:05.311Z,3.20
2022-09-06T21:00:52.591Z,3.43
2022-09-06T21:03:41.505Z,3.00
2022-09-06T21:06:31.157Z,2.97
2022-09-06T21:09:18.514Z,3.03
2022-09-06T21:12:05.669Z,3.43
2022-09-06T21:14:54.819Z,4.03
2022-09-06T21:17:41.765Z,3.83
2022-09-06T21:20:29.749Z,3.40
2022-09-06T21:23:16.698Z,3.70
2022-09-06T21:26:10.041Z,4.20
2022-09-06T21:28:57.069Z,3.67
2022-09-06T21:31:44.149Z,3.43
2022-09-06T21:34:31.116Z,3.50
2022-09-06T21:37:18.165Z,3.77
2022-09-06T21:40:05.598Z,3.70
2022-09-06T21:42:53.060Z,4.03
2022-09-06T21:45:39.984Z,3.43
2022-09-06T21:48:27.255Z,3.40
2022-09-06T21:51:18.549Z,3.73
2022-09-06T21:54:06.119Z,3.80
2022-09-06T21:56:53.075Z,3.63
2022-09-06T21:59:40.046Z,3.90
2022-09-06T22:02:27.443Z,3.60
2022-09-06T22:05:15.028Z,3.50
2022-09-06T22:08:02.261Z,3.00
2022-09-06T22:10:49.736Z,3.60
2022-09-06T22:13:36.716Z,3.67
2022-09-06T22:16:24.767Z,3.47
2022-09-06T22:19:11.952Z,3.83
2022-09-06T22:21:58.900Z,3.57
2022-09-06T22:24:45.901Z,3.60
2022-09-06T22:27:32.975Z,3.57
2022-09-06T22:30:25.080Z,3.80
2022-09-06T22:33:12.595Z,4.13
2022-09-06T22:36:00.418Z,4.20
2022-09-06T22:38:47.469Z,3.60
2022-09-06T22:41:35.339Z,4.13
2022-09-06T22:44:22.359Z,3.90
2022-09-06T22:47:09.305Z,3.90
2022-09-06T22:49:56.389Z,4.20
2022-09-06T22:52:43.333Z,4.07
2022-09-06T22:55:30.949Z,3.40
2022-09-06T22:58:18.172Z,4.00
2022-09-06T23:01:10.506Z,3.67
2022-09-06T23:03:57.583Z,3.70
2022-09-06T23:06:44.536Z,4.20
2022-09-06T23:09:31.505Z,3.70
2022-09-06T23:12:18.886Z,3.23
2022-09-06T23:15:06.763Z,3.80
2022-09-06T23:17:53.791Z,3.40
2022-09-06T23:20:41.033Z,3.60
2022-09-06T23:23:28.113Z,3.40
2022-09-06T23:26:17.720Z,4.40
2022-09-06T23:29:04.777Z,3.23
2022-09-06T23:31:51.764Z,3.70
2022-09-06T23:34:39.134Z,3.90
2022-09-06T23:37:26.098Z,3.80
2022-09-06T23:40:13.169Z,4.17
2022-09-06T23:43:00.623Z,4.43
2022-09-06T23:45:47.574Z,3.10
2022-09-06T23:48:35.225Z,3.10
2022-09-06T23:51:22.278Z,3.60
2022-09-06T23:54:09.251Z,3.80
2022-09-06T23:56:56.228Z,3.60
2022-09-06T23:59:43.176Z,3.77
